createdAt,value
2019-02-02T00:01:59.590Z,2.10
2019-02-02T00:04:41.331Z,2.10
2019-02-02T00:07:23.483Z,2.20
2019-02-02T00:10:05.426Z,2.20
2019-02-02T00:12:47.246Z,2.20
2019-02-02T00:15:28.871Z,2.20
2019-02-02T00:18:11.151Z,2.20
2019-02-02T00:20:53.027Z,2.20
2019-02-02T00:23:34.638Z,2.20
2019-02-02T00:26:16.914Z,2.20
2019-02-02T00:28:58.798Z,2.20
2019-02-02T00:31:41.102Z,2.20
2019-02-02T00:34:21.630Z,2.20
2019-02-02T00:37:10.990Z,2.20
2019-02-02T00:39:54.744Z,2.20
2019-02-02T00:42:37.094Z,2.20
2019-02-02T00:45:19.045Z,2.20
2019-02-02T00:48:01.574Z,2.20
2019-02-02T00:50:43.605Z,2.20
2019-02-02T00:53:26.154Z,2.20
2019-02-02T00:56:07.939Z,2.20
2019-02-02T00:58:50.546Z,2.20
2019-02-02T01:01:32.647Z,2.30
2019-02-02T01:04:14.646Z,2.20
2019-02-02T01:06:56.768Z,2.30
2019-02-02T01:09:38.859Z,2.20
2019-02-02T01:12:20.749Z,2.20
2019-02-02T01:15:02.820Z,2.30
2019-02-02T01:17:44.519Z,2.30
2019-02-02T01:20:26.507Z,2.40
2019-02-02T01:23:08.482Z,2.40
2019-02-02T01:25:50.326Z,2.30
2019-02-02T01:28:32.402Z,2.40
2019-02-02T01:31:14.522Z,2.40
2019-02-02T01:33:56.146Z,2.30
2019-02-02T01:36:38.463Z,2.30
2019-02-02T01:39:20.835Z,2.30
2019-02-02T01:42:03.167Z,2.30
2019-02-02T01:44:44.862Z,2.30
2019-02-02T01:47:27.070Z,2.40
2019-02-02T01:50:09.218Z,2.40
2019-02-02T01:52:51.558Z,2.40
2019-02-02T01:55:33.410Z,2.40
2019-02-02T01:58:16.979Z,2.40
2019-02-02T02:00:58.986Z,2.40
2019-02-02T02:03:41.240Z,2.50
2019-02-02T02:06:22.944Z,2.50
2019-02-02T02:09:04.774Z,2.50
2019-02-02T02:11:46.589Z,2.50
2019-02-02T02:14:28.511Z,2.60
2019-02-02T02:17:10.396Z,2.60
2019-02-02T02:19:52.597Z,2.50
2019-02-02T02:22:41.229Z,2.50
2019-02-02T02:25:18.631Z,2.50
2019-02-02T02:28:00.555Z,2.50
2019-02-02T02:30:42.683Z,2.60
2019-02-02T02:33:24.345Z,2.60
2019-02-02T02:36:06.342Z,2.60
2019-02-02T02:38:48.473Z,2.60
2019-02-02T02:41:31.098Z,2.50
2019-02-02T02:44:13.003Z,2.50
2019-02-02T02:46:54.721Z,2.50
2019-02-02T02:49:36.717Z,2.60
2019-02-02T02:52:07.077Z,2.70
2019-02-02T02:54:57.972Z,2.60
2019-02-02T02:57:41.631Z,2.60
2019-02-02T03:00:23.869Z,2.60
2019-02-02T03:03:05.950Z,2.60
2019-02-02T03:05:48.339Z,2.60
2019-02-02T03:08:30.869Z,2.60
2019-02-02T03:11:12.686Z,2.70
2019-02-02T03:13:54.291Z,2.70
2019-02-02T03:16:36.910Z,2.70
2019-02-02T03:19:18.582Z,2.70
2019-02-02T03:22:00.482Z,2.70
2019-02-02T03:24:42.194Z,2.70
2019-02-02T03:27:23.870Z,2.70
2019-02-02T03:30:06.115Z,2.70
2019-02-02T03:32:36.485Z,2.70
2019-02-02T03:35:27.333Z,2.70
2019-02-02T03:38:11.145Z,2.70
2019-02-02T03:40:53.151Z,2.70
2019-02-02T03:43:34.903Z,2.70
2019-02-02T03:46:16.682Z,2.70
2019-02-02T03:48:58.843Z,2.70
2019-02-02T03:51:40.762Z,2.70
2019-02-02T03:54:22.574Z,2.70
2019-02-02T03:57:04.549Z,2.70
2019-02-02T03:59:46.696Z,2.70
2019-02-02T04:02:28.508Z,2.70
2019-02-02T04:05:10.130Z,2.70
2019-02-02T04:07:52.218Z,2.70
2019-02-02T04:10:34.021Z,2.70
2019-02-02T04:13:15.989Z,2.70
2019-02-02T04:15:57.935Z,2.80
2019-02-02T04:18:39.922Z,2.80
2019-02-02T04:21:21.967Z,2.80
2019-02-02T04:24:04.370Z,2.80
2019-02-02T04:26:46.239Z,2.80
2019-02-02T04:29:28.314Z,2.90
2019-02-02T04:32:10.179Z,2.90
2019-02-02T04:34:52.227Z,2.90
2019-02-02T04:37:34.166Z,2.90
2019-02-02T04:40:16.291Z,2.80
2019-02-02T04:42:58.383Z,2.80
2019-02-02T04:45:40.338Z,2.80
2019-02-02T04:48:22.066Z,2.90
2019-02-02T04:51:03.923Z,2.90
2019-02-02T04:53:45.990Z,2.90
2019-02-02T04:56:27.744Z,2.90
2019-02-02T04:59:10.311Z,2.90
2019-02-02T05:01:52.398Z,2.90
2019-02-02T05:04:34.392Z,3.00
2019-02-02T05:07:16.490Z,2.90
2019-02-02T05:09:46.774Z,2.90
2019-02-02T05:12:36.210Z,3.00
2019-02-02T05:15:20.171Z,3.00
2019-02-02T05:18:02.473Z,3.00
2019-02-02T05:20:44.411Z,3.00
2019-02-02T05:23:26.659Z,3.00
2019-02-02T05:26:08.699Z,3.00
2019-02-02T05:28:50.802Z,3.00
2019-02-02T05:31:32.635Z,3.00
2019-02-02T05:34:14.752Z,3.00
2019-02-02T05:36:56.486Z,3.00
2019-02-02T05:39:38.243Z,3.00
2019-02-02T05:42:20.238Z,3.10
2019-02-02T05:45:02.133Z,3.00
2019-02-02T05:47:43.952Z,3.10
2019-02-02T05:50:26.451Z,3.10
2019-02-02T05:53:08.467Z,3.00
2019-02-02T05:55:50.323Z,3.10
2019-02-02T05:58:20.623Z,3.00
2019-02-02T06:03:54.147Z,3.10
2019-02-02T06:06:25.987Z,3.10
2019-02-02T06:09:16.849Z,3.10
2019-02-02T06:15:21.950Z,3.10
2019-02-02T06:18:04.097Z,3.10
2019-02-02T06:20:45.875Z,3.10
2019-02-02T06:23:27.810Z,3.10
2019-02-02T06:26:09.470Z,3.10
2019-02-02T06:28:51.129Z,3.10
2019-02-02T06:31:33.038Z,3.10
2019-02-02T06:34:15.090Z,3.20
2019-02-02T06:36:56.714Z,3.20
2019-02-02T06:39:39.014Z,3.20
2019-02-02T06:42:20.923Z,3.20
2019-02-02T06:45:03.012Z,3.30
2019-02-02T06:47:45.274Z,3.20
2019-02-02T06:50:27.287Z,3.30
2019-02-02T06:53:09.027Z,3.30
2019-02-02T06:55:51.181Z,3.30
2019-02-02T06:58:33.172Z,3.30
2019-02-02T07:01:15.370Z,3.40
2019-02-02T07:03:57.270Z,3.40
2019-02-02T07:06:39.574Z,3.40
2019-02-02T07:09:21.475Z,3.40
2019-02-02T07:12:03.121Z,3.40
2019-02-02T07:14:45.606Z,3.30
2019-02-02T07:17:28.057Z,3.40
2019-02-02T07:20:10.222Z,3.30
2019-02-02T07:22:50.704Z,3.40
2019-02-02T07:28:41.282Z,3.40
2019-02-02T07:31:25.202Z,3.50
2019-02-02T07:34:07.893Z,3.60
2019-02-02T07:36:49.907Z,3.60
2019-02-02T07:39:31.708Z,3.70
2019-02-02T07:42:13.646Z,3.80
2019-02-02T07:44:55.767Z,3.80
2019-02-02T07:47:37.890Z,3.80
2019-02-02T07:50:20.134Z,3.90
2019-02-02T07:53:02.736Z,3.90
2019-02-02T07:55:44.601Z,3.90
2019-02-02T07:58:26.838Z,3.90
2019-02-02T08:01:08.552Z,4.10
2019-02-02T08:03:50.301Z,4.20
2019-02-02T08:06:32.146Z,4.20
2019-02-02T08:09:14.062Z,4.20
2019-02-02T08:11:55.854Z,4.20
2019-02-02T08:14:37.799Z,4.30
2019-02-02T08:17:19.758Z,4.40
2019-02-02T08:19:50.122Z,4.40
2019-02-02T08:22:40.902Z,4.40
2019-02-02T08:25:24.578Z,4.30
2019-02-02T08:28:06.423Z,4.30
2019-02-02T08:30:52.387Z,4.30
2019-02-02T08:33:31.642Z,4.30
2019-02-02T08:36:14.262Z,4.40
2019-02-02T08:38:56.073Z,4.50
2019-02-02T08:41:38.263Z,4.50
2019-02-02T08:44:20.174Z,4.60
2019-02-02T08:47:02.883Z,4.60
2019-02-02T08:49:45.334Z,4.60
2019-02-02T08:52:27.246Z,4.60
2019-02-02T08:55:10.815Z,4.70
2019-02-02T08:57:51.400Z,4.80
2019-02-02T09:00:40.786Z,4.90
2019-02-02T09:03:25.563Z,5.10
2019-02-02T09:06:07.714Z,5.40
2019-02-02T09:08:49.691Z,5.50
2019-02-02T09:11:31.654Z,5.60
2019-02-02T09:14:13.726Z,5.60
2019-02-02T09:16:55.914Z,5.70
2019-02-02T09:19:38.043Z,5.70
2019-02-02T09:22:20.391Z,5.70
2019-02-02T09:25:02.266Z,5.70
2019-02-02T09:27:44.103Z,5.60
2019-02-02T09:30:26.274Z,5.70
2019-02-02T09:33:08.122Z,5.80
2019-02-02T09:35:50.195Z,5.90
2019-02-02T09:38:31.816Z,5.90
2019-02-02T09:41:12.340Z,6.00
2019-02-02T09:44:01.745Z,6.20
2019-02-02T09:46:45.514Z,6.30
2019-02-02T09:49:28.110Z,6.30
2019-02-02T09:52:10.223Z,6.40
2019-02-02T09:54:52.042Z,6.40
2019-02-02T09:57:37.125Z,6.40
2019-02-02T10:00:19.531Z,6.50
2019-02-02T10:03:01.274Z,6.60
2019-02-02T10:05:43.591Z,6.70
2019-02-02T10:08:28.209Z,6.70
2019-02-02T10:11:09.482Z,6.70
2019-02-02T10:13:52.169Z,6.70
2019-02-02T10:16:34.173Z,6.70
2019-02-02T10:19:16.541Z,6.70
2019-02-02T10:21:58.302Z,6.80
2019-02-02T10:24:40.070Z,6.90
2019-02-02T10:27:22.590Z,7.10
2019-02-02T10:30:05.019Z,7.20
2019-02-02T10:32:47.126Z,7.20
2019-02-02T10:35:29.093Z,7.20
2019-02-02T10:38:10.874Z,7.20
2019-02-02T10:40:53.099Z,7.30
2019-02-02T10:43:34.883Z,7.40
2019-02-02T10:46:16.757Z,7.40
2019-02-02T10:48:59.094Z,7.40
2019-02-02T10:51:41.014Z,7.50
2019-02-02T10:54:23.088Z,7.40
2019-02-02T10:57:05.331Z,7.50
2019-02-02T10:59:49.081Z,7.50
2019-02-02T11:02:30.503Z,7.50
2019-02-02T11:05:12.429Z,7.50
2019-02-02T11:07:54.940Z,7.60
2019-02-02T11:10:37.718Z,7.60
2019-02-02T11:13:20.011Z,7.60
2019-02-02T11:16:01.742Z,7.50
2019-02-02T11:18:44.004Z,7.60
2019-02-02T11:21:26.237Z,7.80
2019-02-02T11:24:08.350Z,7.90
2019-02-02T11:26:50.522Z,8.10
2019-02-02T11:29:32.570Z,8.20
2019-02-02T11:32:14.278Z,8.30
2019-02-02T11:34:56.321Z,8.40
2019-02-02T11:37:38.440Z,8.50
2019-02-02T11:40:20.648Z,8.60
2019-02-02T11:43:03.400Z,8.80
2019-02-02T11:45:45.254Z,9.00
2019-02-02T11:48:27.056Z,9.30
2019-02-02T11:51:09.377Z,9.40
2019-02-02T11:53:51.525Z,9.60
2019-02-02T11:56:33.226Z,9.60
2019-02-02T11:59:15.258Z,9.60
2019-02-02T12:01:56.962Z,9.70
2019-02-02T12:04:38.858Z,9.80
2019-02-02T12:07:21.022Z,10.10
2019-02-02T12:10:02.774Z,10.30
2019-02-02T12:12:44.787Z,10.60
2019-02-02T12:15:26.690Z,10.80
2019-02-02T12:18:11.707Z,10.90
2019-02-02T12:20:52.247Z,10.80
2019-02-02T12:23:34.115Z,10.80
2019-02-02T12:26:16.082Z,10.90
2019-02-02T12:28:57.978Z,10.90
2019-02-02T12:31:40.291Z,10.90
2019-02-02T12:34:21.998Z,11.00
2019-02-02T12:37:04.733Z,11.10
2019-02-02T12:39:46.558Z,11.10
2019-02-02T12:42:28.487Z,11.20
2019-02-02T12:45:10.546Z,11.20
2019-02-02T12:47:51.218Z,11.30
2019-02-02T12:50:40.462Z,11.30
2019-02-02T12:53:23.925Z,11.30
2019-02-02T12:56:04.362Z,11.30
2019-02-02T12:58:53.697Z,11.40
2019-02-02T13:01:37.246Z,11.50
2019-02-02T13:04:19.522Z,11.60
2019-02-02T13:07:01.463Z,11.50
2019-02-02T13:09:43.106Z,11.50
2019-02-02T13:12:24.868Z,11.30
2019-02-02T13:15:06.897Z,11.20
2019-02-02T13:17:49.206Z,11.20
2019-02-02T13:20:31.207Z,11.20
2019-02-02T13:23:13.602Z,11.30
2019-02-02T13:26:05.043Z,11.40
2019-02-02T13:28:39.637Z,11.60
2019-02-02T13:31:21.331Z,11.60
2019-02-02T13:34:03.815Z,11.60
2019-02-02T13:36:45.570Z,11.60
2019-02-02T13:39:27.526Z,11.50
2019-02-02T13:42:09.439Z,11.40
2019-02-02T13:44:51.406Z,11.30
2019-02-02T13:47:33.143Z,11.20
2019-02-02T13:50:14.847Z,11.20
2019-02-02T13:52:56.735Z,11.10
2019-02-02T13:55:39.960Z,11.00
2019-02-02T13:58:21.902Z,10.90
2019-02-02T14:01:03.640Z,10.90
2019-02-02T14:03:45.449Z,10.80
2019-02-02T14:06:27.238Z,10.70
2019-02-02T14:09:09.046Z,10.60
2019-02-02T14:11:49.555Z,10.60
2019-02-02T14:14:38.993Z,10.50
2019-02-02T14:17:22.898Z,10.50
2019-02-02T14:20:05.314Z,10.50
2019-02-02T14:22:46.985Z,10.60
2019-02-02T14:25:28.613Z,10.50
2019-02-02T14:28:10.554Z,10.60
2019-02-02T14:30:53.710Z,10.70
2019-02-02T14:33:35.699Z,10.60
2019-02-02T14:36:17.902Z,10.50
2019-02-02T14:38:59.898Z,10.40
2019-02-02T14:41:41.882Z,10.40
2019-02-02T14:44:23.610Z,10.40
2019-02-02T14:47:05.622Z,10.40
2019-02-02T14:49:47.323Z,10.40
2019-02-02T14:52:29.334Z,10.40
2019-02-02T14:55:11.064Z,10.20
2019-02-02T14:57:52.926Z,10.10
2019-02-02T15:00:35.062Z,10.00
2019-02-02T15:03:25.582Z,9.90
2019-02-02T15:06:00.870Z,9.90
2019-02-02T15:08:43.098Z,9.90
2019-02-02T15:11:25.514Z,9.80
2019-02-02T15:14:07.436Z,9.70
2019-02-02T15:16:49.270Z,9.50
2019-02-02T15:19:31.765Z,9.40
2019-02-02T15:22:14.029Z,9.30
2019-02-02T15:24:55.875Z,9.20
2019-02-02T15:27:38.037Z,9.10
2019-02-02T15:30:19.889Z,9.00
2019-02-02T15:33:01.709Z,8.80
2019-02-02T15:35:43.651Z,8.80
2019-02-02T15:38:26.011Z,8.70
2019-02-02T15:41:07.782Z,8.60
2019-02-02T15:43:49.610Z,8.50
2019-02-02T15:46:34.458Z,8.40
2019-02-02T15:49:16.259Z,8.40
2019-02-02T15:52:00.020Z,8.40
2019-02-02T15:54:42.431Z,8.30
2019-02-02T15:57:24.319Z,8.30
2019-02-02T16:00:06.215Z,8.20
2019-02-02T16:02:50.359Z,8.20
2019-02-02T16:05:32.993Z,8.10
2019-02-02T16:08:15.492Z,8.00
2019-02-02T16:10:57.898Z,7.90
2019-02-02T16:13:42.454Z,7.90
2019-02-02T16:16:25.978Z,7.80
2019-02-02T16:19:08.218Z,7.60
2019-02-02T16:21:50.529Z,7.70
2019-02-02T16:24:32.877Z,7.60
2019-02-02T16:27:14.682Z,7.50
2019-02-02T16:29:57.422Z,7.50
2019-02-02T16:32:39.563Z,7.40
2019-02-02T16:35:22.056Z,7.40
2019-02-02T16:38:04.302Z,7.50
2019-02-02T16:40:46.553Z,7.60
2019-02-02T16:43:28.558Z,7.60
2019-02-02T16:46:10.390Z,7.70
2019-02-02T16:48:52.309Z,7.70
2019-02-02T16:51:34.142Z,7.70
2019-02-02T16:54:16.170Z,7.80
2019-02-02T16:56:58.222Z,7.80
2019-02-02T16:59:40.442Z,7.70
2019-02-02T17:02:25.213Z,7.60
2019-02-02T17:05:05.736Z,7.50
2019-02-02T17:07:47.458Z,7.40
2019-02-02T17:10:29.352Z,7.30
2019-02-02T17:13:11.599Z,7.20
2019-02-02T17:15:54.001Z,7.10
2019-02-02T17:18:34.398Z,7.10
2019-02-02T17:21:16.654Z,7.00
2019-02-02T17:23:58.250Z,7.00
2019-02-02T17:26:41.550Z,7.00
2019-02-02T17:29:24.262Z,7.00
2019-02-02T17:32:06.405Z,6.90
2019-02-02T17:34:48.082Z,6.90
2019-02-02T17:37:30.093Z,6.80
2019-02-02T17:40:12.342Z,6.80
2019-02-02T17:42:52.837Z,6.90
2019-02-02T17:45:42.233Z,6.90
2019-02-02T17:48:25.695Z,6.90
2019-02-02T17:51:06.139Z,6.80
2019-02-02T17:53:55.554Z,6.70
2019-02-02T17:56:39.333Z,6.70
2019-02-02T17:59:21.777Z,6.60
2019-02-02T18:02:06.574Z,6.60
2019-02-02T18:04:48.350Z,6.50
2019-02-02T18:07:30.719Z,6.50
2019-02-02T18:10:12.651Z,6.40
2019-02-02T18:12:55.331Z,6.30
2019-02-02T18:15:37.838Z,6.30
2019-02-02T18:18:19.605Z,6.20
2019-02-02T18:21:02.064Z,6.20
2019-02-02T18:23:44.422Z,6.10
2019-02-02T18:26:26.600Z,6.10
2019-02-02T18:29:08.498Z,6.20
2019-02-02T18:31:50.243Z,6.20
2019-02-02T18:34:32.201Z,6.20
2019-02-02T18:37:14.022Z,6.10
2019-02-02T18:39:54.711Z,6.10
2019-02-02T18:42:44.126Z,6.20
2019-02-02T18:45:27.722Z,6.20
2019-02-02T18:48:09.855Z,6.20
2019-02-02T18:50:51.574Z,6.20
2019-02-02T18:53:33.882Z,6.30
2019-02-02T18:56:25.976Z,6.30
2019-02-02T18:59:16.868Z,6.30
2019-02-02T19:02:00.326Z,6.30
2019-02-02T19:04:42.683Z,6.30
2019-02-02T19:07:24.486Z,6.40
2019-02-02T19:10:06.718Z,6.40
2019-02-02T19:12:48.362Z,6.40
2019-02-02T19:15:30.371Z,6.40
2019-02-02T19:18:12.614Z,6.30
2019-02-02T19:20:54.694Z,6.40
2019-02-02T19:23:36.634Z,6.40
2019-02-02T19:26:18.254Z,6.20
2019-02-02T19:29:00.338Z,6.10
2019-02-02T19:31:42.131Z,6.10
2019-02-02T19:34:24.447Z,6.10
2019-02-02T19:37:06.425Z,6.10
2019-02-02T19:39:48.455Z,6.10
2019-02-02T19:42:31.421Z,6.00
2019-02-02T19:45:13.229Z,6.10
2019-02-02T19:47:55.172Z,6.10
2019-02-02T19:50:37.362Z,6.10
2019-02-02T19:53:19.142Z,6.00
2019-02-02T19:56:00.969Z,5.90
2019-02-02T19:58:42.851Z,6.00
2019-02-02T20:01:24.954Z,6.00
2019-02-02T20:04:07.734Z,6.00
2019-02-02T20:06:49.894Z,6.10
2019-02-02T20:09:32.229Z,6.20
2019-02-02T20:12:13.926Z,6.30
2019-02-02T20:14:55.702Z,6.40
2019-02-02T20:17:37.378Z,6.30
2019-02-02T20:20:19.287Z,6.20
2019-02-02T20:23:01.362Z,6.10
2019-02-02T20:25:43.693Z,6.10
2019-02-02T20:28:25.761Z,6.00
2019-02-02T20:31:07.873Z,6.00
2019-02-02T20:33:50.137Z,6.00
2019-02-02T20:36:32.269Z,5.90
2019-02-02T20:39:14.049Z,5.90
2019-02-02T20:41:55.413Z,6.00
2019-02-02T20:44:37.851Z,6.10
2019-02-02T20:47:20.126Z,6.20
2019-02-02T20:50:02.597Z,6.30
2019-02-02T20:52:47.664Z,6.50
2019-02-02T20:55:28.078Z,6.50
2019-02-02T20:58:09.851Z,6.60
2019-02-02T21:00:51.794Z,6.70
2019-02-02T21:03:33.986Z,6.60
2019-02-02T21:06:15.986Z,6.60
2019-02-02T21:08:57.937Z,6.50
2019-02-02T21:11:40.723Z,6.50
2019-02-02T21:14:22.365Z,6.50
2019-02-02T21:17:05.177Z,6.60
2019-02-02T21:19:47.334Z,6.50
2019-02-02T21:22:29.169Z,6.50
2019-02-02T21:25:11.379Z,6.40
2019-02-02T21:27:53.362Z,6.40
2019-02-02T21:30:35.266Z,6.30
2019-02-02T21:33:17.649Z,6.20
2019-02-02T21:36:04.012Z,6.00
2019-02-02T21:38:43.439Z,5.90
2019-02-02T21:41:25.454Z,5.80
2019-02-02T21:44:07.442Z,5.80
2019-02-02T21:46:49.446Z,5.70
2019-02-02T21:49:31.695Z,5.70
2019-02-02T21:52:13.979Z,5.70
2019-02-02T21:54:56.107Z,5.60
2019-02-02T21:57:37.822Z,5.50
2019-02-02T22:00:19.858Z,5.40
2019-02-02T22:03:02.241Z,5.50
2019-02-02T22:05:44.045Z,5.50
2019-02-02T22:08:26.167Z,5.50
2019-02-02T22:11:08.108Z,5.50
2019-02-02T22:13:49.971Z,5.50
2019-02-02T22:16:32.374Z,5.50
2019-02-02T22:19:14.642Z,5.40
2019-02-02T22:21:56.494Z,5.40
2019-02-02T22:24:38.539Z,5.40
2019-02-02T22:27:20.715Z,5.50
2019-02-02T22:30:02.392Z,5.50
2019-02-02T22:32:44.465Z,5.50
2019-02-02T22:35:26.978Z,5.50
2019-02-02T22:37:57.633Z,5.60
2019-02-02T22:40:48.518Z,5.60
2019-02-02T22:43:32.303Z,5.60
2019-02-02T22:46:14.021Z,5.60
2019-02-02T22:48:56.035Z,5.60
2019-02-02T22:51:37.982Z,5.60
2019-02-02T22:54:20.559Z,5.80
2019-02-02T22:57:02.663Z,5.80
2019-02-02T22:59:47.707Z,5.80
2019-02-02T23:02:28.724Z,5.70
2019-02-02T23:05:10.727Z,5.60
2019-02-02T23:07:52.629Z,5.60
2019-02-02T23:10:35.451Z,5.60
2019-02-02T23:13:17.182Z,5.70
2019-02-02T23:15:59.058Z,5.70
2019-02-02T23:18:40.895Z,5.70
2019-02-02T23:21:23.134Z,5.70
2019-02-02T23:24:04.970Z,5.70
2019-02-02T23:26:46.746Z,5.70
2019-02-02T23:29:28.869Z,5.60
2019-02-02T23:32:10.634Z,5.60
2019-02-02T23:34:52.711Z,5.80
2019-02-02T23:37:34.706Z,5.80
2019-02-02T23:40:17.300Z,5.80
2019-02-02T23:43:00.102Z,5.80
2019-02-02T23:45:41.864Z,5.80
2019-02-02T23:48:23.682Z,5.80
2019-02-02T23:51:05.411Z,5.90
2019-02-02T23:53:47.339Z,5.80
2019-02-02T23:56:29.172Z,5.80
2019-02-02T23:59:11.091Z,5.70
